sensor_id;sensor_type;location;lat;lon;timestamp;pressure;altitude;pressure_sealevel;temperature;humidity
70976;BME280;58635;51.198;6.010;2023-05-11T00:00:50;101258.53;;;17.74;60.09
70976;BME280;58635;51.198;6.010;2023-05-11T00:03:16;101250.94;;;17.72;60.65
70976;BME280;58635;51.198;6.010;2023-05-11T00:05:41;101252.53;;;17.73;60.30
70976;BME280;58635;51.198;6.010;2023-05-11T00:08:11;101249.91;;;17.73;60.50
70976;BME280;58635;51.198;6.010;2023-05-11T00:10:36;101256.72;;;17.74;60.82
70976;BME280;58635;51.198;6.010;2023-05-11T00:13:01;101247.28;;;17.73;60.63
70976;BME280;58635;51.198;6.010;2023-05-11T00:15:27;101251.50;;;17.74;60.87
70976;BME280;58635;51.198;6.010;2023-05-11T00:17:52;101246.50;;;17.73;60.70
70976;BME280;58635;51.198;6.010;2023-05-11T00:20:18;101247.28;;;17.73;60.63
70976;BME280;58635;51.198;6.010;2023-05-11T00:22:45;101246.50;;;17.73;60.89
70976;BME280;58635;51.198;6.010;2023-05-11T00:25:10;101242.28;;;17.72;61.15
70976;BME280;58635;51.198;6.010;2023-05-11T00:27:36;101241.50;;;17.71;61.12
70976;BME280;58635;51.198;6.010;2023-05-11T00:30:01;101246.97;;;17.70;60.99
70976;BME280;58635;51.198;6.010;2023-05-11T00:32:27;101249.78;;;17.68;61.21
70976;BME280;58635;51.198;6.010;2023-05-11T00:34:52;101244.53;;;17.68;61.22
70976;BME280;58635;51.198;6.010;2023-05-11T00:37:17;101242.94;;;17.67;61.15
70976;BME280;58635;51.198;6.010;2023-05-11T00:39:43;101240.56;;;17.66;61.25
70976;BME280;58635;51.198;6.010;2023-05-11T00:42:09;101241.13;;;17.68;61.12
70976;BME280;58635;51.198;6.010;2023-05-11T00:44:35;101245.56;;;17.67;61.47
70976;BME280;58635;51.198;6.010;2023-05-11T00:47:00;101244.78;;;17.67;61.38
70976;BME280;58635;51.198;6.010;2023-05-11T00:49:26;101246.59;;;17.66;61.47
70976;BME280;58635;51.198;6.010;2023-05-11T00:51:51;101247.16;;;17.68;61.39
70976;BME280;58635;51.198;6.010;2023-05-11T00:54:17;101246.16;;;17.69;61.40
70976;BME280;58635;51.198;6.010;2023-05-11T00:56:42;101245.38;;;17.69;61.36
70976;BME280;58635;51.198;6.010;2023-05-11T00:59:08;101243.53;;;17.69;61.66
70976;BME280;58635;51.198;6.010;2023-05-11T01:01:37;101246.97;;;17.70;61.26
70976;BME280;58635;51.198;6.010;2023-05-11T01:04:03;101251.16;;;17.71;61.44
70976;BME280;58635;51.198;6.010;2023-05-11T01:06:36;101245.94;;;17.71;61.63
70976;BME280;58635;51.198;6.010;2023-05-11T01:09:23;101249.34;;;17.71;61.72
70976;BME280;58635;51.198;6.010;2023-05-11T01:12:02;101244.34;;;17.70;61.60
70976;BME280;58635;51.198;6.010;2023-05-11T01:14:38;101242.75;;;17.69;61.59
70976;BME280;58635;51.198;6.010;2023-05-11T01:17:17;101242.94;;;17.67;61.79
70976;BME280;58635;51.198;6.010;2023-05-11T01:19:49;101243.19;;;17.66;61.74
70976;BME280;58635;51.198;6.010;2023-05-11T01:25:26;101243.19;;;17.66;61.94
70976;BME280;58635;51.198;6.010;2023-05-11T01:28:14;101250.81;;;17.67;61.70
70976;BME280;58635;51.198;6.010;2023-05-11T01:30:56;101255.47;;;17.65;61.39
70976;BME280;58635;51.198;6.010;2023-05-11T01:33:30;101251.47;;;17.63;61.84
70976;BME280;58635;51.198;6.010;2023-05-11T01:36:10;101251.69;;;17.61;61.23
70976;BME280;58635;51.198;6.010;2023-05-11T01:38:39;101250.13;;;17.60;61.74
70976;BME280;58635;51.198;6.010;2023-05-11T01:41:13;101254.31;;;17.61;61.61
70976;BME280;58635;51.198;6.010;2023-05-11T01:43:42;101256.94;;;17.61;61.34
70976;BME280;58635;51.198;6.010;2023-05-11T01:46:09;101253.53;;;17.61;61.61
70976;BME280;58635;51.198;6.010;2023-05-11T01:48:37;101256.13;;;17.61;61.53
70976;BME280;58635;51.198;6.010;2023-05-11T01:51:04;101252.97;;;17.59;61.55
70976;BME280;58635;51.198;6.010;2023-05-11T01:53:33;101253.75;;;17.59;61.68
70976;BME280;58635;51.198;6.010;2023-05-11T01:56:01;101255.56;;;17.59;61.74
70976;BME280;58635;51.198;6.010;2023-05-11T01:58:28;101258.41;;;17.57;61.49
70976;BME280;58635;51.198;6.010;2023-05-11T02:00:54;101261.28;;;17.56;61.88
70976;BME280;58635;51.198;6.010;2023-05-11T02:03:21;101256.84;;;17.56;61.39
70976;BME280;58635;51.198;6.010;2023-05-11T02:05:48;101252.41;;;17.57;61.47
70976;BME280;58635;51.198;6.010;2023-05-11T02:08:16;101254.22;;;17.56;61.49
70976;BME280;58635;51.198;6.010;2023-05-11T02:10:43;101258.66;;;17.56;61.50
70976;BME280;58635;51.198;6.010;2023-05-11T02:13:10;101253.66;;;17.54;61.49
70976;BME280;58635;51.198;6.010;2023-05-11T02:15:39;101259.69;;;17.54;61.53
70976;BME280;58635;51.198;6.010;2023-05-11T02:18:11;101262.53;;;17.53;61.57
70976;BME280;58635;51.198;6.010;2023-05-11T02:20:40;101265.56;;;17.50;61.71
70976;BME280;58635;51.198;6.010;2023-05-11T02:23:08;101263.97;;;17.49;61.25
70976;BME280;58635;51.198;6.010;2023-05-11T02:25:36;101262.41;;;17.48;61.76
70976;BME280;58635;51.198;6.010;2023-05-11T02:28:02;101267.63;;;17.48;61.46
70976;BME280;58635;51.198;6.010;2023-05-11T02:30:28;101267.63;;;17.48;61.89
70976;BME280;58635;51.198;6.010;2023-05-11T02:32:57;101269.22;;;17.49;61.62
70976;BME280;58635;51.198;6.010;2023-05-11T02:35:30;101265.00;;;17.48;61.97
70976;BME280;58635;51.198;6.010;2023-05-11T02:37:59;101263.19;;;17.48;61.62
70976;BME280;58635;51.198;6.010;2023-05-11T02:40:31;101263.19;;;17.48;61.84
70976;BME280;58635;51.198;6.010;2023-05-11T02:43:02;101255.34;;;17.48;61.73
70976;BME280;58635;51.198;6.010;2023-05-11T02:45:31;101253.06;;;17.40;61.84
70976;BME280;58635;51.198;6.010;2023-05-11T02:47:59;101258.66;;;17.44;61.79
70976;BME280;58635;51.198;6.010;2023-05-11T02:50:29;101255.00;;;17.45;62.02
70976;BME280;58635;51.198;6.010;2023-05-11T02:52:57;101255.56;;;17.47;61.83
70976;BME280;58635;51.198;6.010;2023-05-11T02:55:26;101258.97;;;17.47;62.02
70976;BME280;58635;51.198;6.010;2023-05-11T02:57:53;101256.59;;;17.46;61.79
70976;BME280;58635;51.198;6.010;2023-05-11T03:00:19;101257.41;;;17.46;61.83
70976;BME280;58635;51.198;6.010;2023-05-11T03:02:44;101256.59;;;17.46;61.76
70976;BME280;58635;51.198;6.010;2023-05-11T03:05:10;101254.22;;;17.44;61.95
70976;BME280;58635;51.198;6.010;2023-05-11T03:07:35;101257.63;;;17.45;61.72
70976;BME280;58635;51.198;6.010;2023-05-11T03:10:04;101256.59;;;17.46;61.78
70976;BME280;58635;51.198;6.010;2023-05-11T03:12:30;101255.00;;;17.45;61.92
70976;BME280;58635;51.198;6.010;2023-05-11T03:14:58;101260.25;;;17.45;61.87
70976;BME280;58635;51.198;6.010;2023-05-11T03:17:26;101257.63;;;17.45;61.72
70976;BME280;58635;51.198;6.010;2023-05-11T03:19:53;101253.41;;;17.44;61.73
70976;BME280;58635;51.198;6.010;2023-05-11T03:22:20;101249.22;;;17.43;61.99
70976;BME280;58635;51.198;6.010;2023-05-11T03:24:46;101251.25;;;17.41;62.07
70976;BME280;58635;51.198;6.010;2023-05-11T03:27:13;101252.25;;;17.40;61.84
70976;BME280;58635;51.198;6.010;2023-05-11T03:29:39;101259.53;;;17.38;61.49
70976;BME280;58635;51.198;6.010;2023-05-11T03:32:07;101248.50;;;17.36;61.72
70976;BME280;58635;51.198;6.010;2023-05-11T03:34:33;101253.19;;;17.34;61.47
70976;BME280;58635;51.198;6.010;2023-05-11T03:36:59;101248.41;;;17.31;61.32
70976;BME280;58635;51.198;6.010;2023-05-11T03:39:26;101246.03;;;17.29;61.34
70976;BME280;58635;51.198;6.010;2023-05-11T03:41:54;101252.47;;;17.27;61.23
70976;BME280;58635;51.198;6.010;2023-05-11T03:44:20;101249.53;;;17.23;61.61
70976;BME280;58635;51.198;6.010;2023-05-11T03:46:47;101254.41;;;17.19;61.51
70976;BME280;58635;51.198;6.010;2023-05-11T03:49:15;101247.84;;;17.17;61.24
70976;BME280;58635;51.198;6.010;2023-05-11T05:56:53;101328.34;;;17.50;60.58
70976;BME280;58635;51.198;6.010;2023-05-11T05:59:19;101332.78;;;17.49;60.72
70976;BME280;58635;51.198;6.010;2023-05-11T06:01:48;101338.00;;;17.49;60.58
70976;BME280;58635;51.198;6.010;2023-05-11T06:04:13;101341.41;;;17.50;60.58
70976;BME280;58635;51.198;6.010;2023-05-11T06:06:39;101329.94;;;17.51;60.39
70976;BME280;58635;51.198;6.010;2023-05-11T06:09:04;101336.97;;;17.50;60.44
70976;BME280;58635;51.198;6.010;2023-05-11T06:11:30;101344.41;;;17.53;60.35
70976;BME280;58635;51.198;6.010;2023-05-11T06:13:56;101344.16;;;17.55;60.43
70976;BME280;58635;51.198;6.010;2023-05-11T06:16:21;101347.34;;;17.57;60.32
70976;BME280;58635;51.198;6.010;2023-05-11T06:18:47;101347.13;;;17.59;60.43
70976;BME280;58635;51.198;6.010;2023-05-11T06:21:13;101349.50;;;17.60;60.14
70976;BME280;58635;51.198;6.010;2023-05-11T06:23:38;101350.88;;;17.63;60.28
70976;BME280;58635;51.198;6.010;2023-05-11T06:26:03;101348.63;;;17.66;60.35
70976;BME280;58635;51.198;6.010;2023-05-11T06:28:29;101351.81;;;17.68;60.26
70976;BME280;58635;51.198;6.010;2023-05-11T06:30:57;101348.53;;;17.73;60.00
70976;BME280;58635;51.198;6.010;2023-05-11T06:33:24;101344.44;;;17.77;59.92
70976;BME280;58635;51.198;6.010;2023-05-11T06:35:50;101350.03;;;17.80;59.81
70976;BME280;58635;51.198;6.010;2023-05-11T06:38:15;101347.28;;;17.87;59.53
70976;BME280;58635;51.198;6.010;2023-05-11T06:40:40;101345.13;;;17.96;59.76
70976;BME280;58635;51.198;6.010;2023-05-11T06:43:06;101348.44;;;18.03;59.35
70976;BME280;58635;51.198;6.010;2023-05-11T06:45:32;101343.06;;;18.09;59.46
70976;BME280;58635;51.198;6.010;2023-05-11T06:47:57;101347.16;;;18.17;59.15
70976;BME280;58635;51.198;6.010;2023-05-11T06:50:23;101349.44;;;18.25;58.88
70976;BME280;58635;51.198;6.010;2023-05-11T06:52:48;101353.50;;;18.33;58.84
70976;BME280;58635;51.198;6.010;2023-05-11T06:55:14;101360.78;;;18.42;58.77
70976;BME280;58635;51.198;6.010;2023-05-11T06:57:39;101357.34;;;18.54;58.61
70976;BME280;58635;51.198;6.010;2023-05-11T07:00:05;101346.50;;;18.62;58.41
70976;BME280;58635;51.198;6.010;2023-05-11T07:02:31;101352.19;;;18.70;57.93
70976;BME280;58635;51.198;6.010;2023-05-11T07:04:57;101354.69;;;18.77;58.29
70976;BME280;58635;51.198;6.010;2023-05-11T07:07:22;101355.59;;;18.83;57.98
70976;BME280;58635;51.198;6.010;2023-05-11T07:09:48;101355.66;;;18.88;57.80
70976;BME280;58635;51.198;6.010;2023-05-11T07:12:14;101355.66;;;18.88;57.63
70976;BME280;58635;51.198;6.010;2023-05-11T07:14:41;101347.31;;;18.91;57.37
70976;BME280;58635;51.198;6.010;2023-05-11T07:17:06;101355.06;;;18.97;57.13
70976;BME280;58635;51.198;6.010;2023-05-11T07:19:32;101349.41;;;19.06;56.89
70976;BME280;58635;51.198;6.010;2023-05-11T07:21:57;101353.50;;;19.13;56.84
70976;BME280;58635;51.198;6.010;2023-05-11T07:24:23;101358.34;;;19.21;56.73
70976;BME280;58635;51.198;6.010;2023-05-11T07:26:48;101357.94;;;19.29;56.45
70976;BME280;58635;51.198;6.010;2023-05-11T07:29:15;101360.44;;;19.36;56.14
70976;BME280;58635;51.198;6.010;2023-05-11T07:31:41;101350.34;;;19.45;55.84
70976;BME280;58635;51.198;6.010;2023-05-11T07:34:08;101358.19;;;19.56;56.00
70976;BME280;58635;51.198;6.010;2023-05-11T07:36:34;101359.03;;;19.62;55.95
70976;BME280;58635;51.198;6.010;2023-05-11T07:38:59;101359.13;;;19.67;55.34
70976;BME280;58635;51.198;6.010;2023-05-11T07:41:26;101360.28;;;19.76;55.38
70976;BME280;58635;51.198;6.010;2023-05-11T07:43:53;101362.28;;;19.86;55.01
70976;BME280;58635;51.198;6.010;2023-05-11T07:46:19;101358.47;;;19.94;54.77
70976;BME280;58635;51.198;6.010;2023-05-11T07:48:44;101364.31;;;20.01;54.80
70976;BME280;58635;51.198;6.010;2023-05-11T07:51:10;101364.16;;;20.07;54.50
70976;BME280;58635;51.198;6.010;2023-05-11T07:53:36;101359.78;;;20.13;54.27
70976;BME280;58635;51.198;6.010;2023-05-11T07:56:01;101370.59;;;20.17;54.09
70976;BME280;58635;51.198;6.010;2023-05-11T07:58:28;101364.59;;;20.21;53.75
70976;BME280;58635;51.198;6.010;2023-05-11T08:00:53;101366.97;;;20.23;53.67
70976;BME280;58635;51.198;6.010;2023-05-11T08:03:19;101366.97;;;20.23;53.72
70976;BME280;58635;51.198;6.010;2023-05-11T08:05:44;101368.28;;;20.20;53.33
70976;BME280;58635;51.198;6.010;2023-05-11T08:08:10;101370.59;;;20.17;53.50
70976;BME280;58635;51.198;6.010;2023-05-11T08:10:35;101368.91;;;20.10;53.23
70976;BME280;58635;51.198;6.010;2023-05-11T08:13:01;101374.66;;;20.07;53.44
70976;BME280;58635;51.198;6.010;2023-05-11T08:15:26;101373.56;;;20.03;53.50
70976;BME280;58635;51.198;6.010;2023-05-11T08:17:52;101372.53;;;20.04;53.38
70976;BME280;58635;51.198;6.010;2023-05-11T08:20:17;101374.66;;;20.07;53.69
70976;BME280;58635;51.198;6.010;2023-05-11T08:22:43;101372.91;;;20.13;53.50
70976;BME280;58635;51.198;6.010;2023-05-11T08:25:09;101368.50;;;20.19;53.19
70976;BME280;58635;51.198;6.010;2023-05-11T08:27:35;101372.22;;;20.23;53.30
70976;BME280;58635;51.198;6.010;2023-05-11T08:30:00;101368.09;;;20.27;53.40
70976;BME280;58635;51.198;6.010;2023-05-11T08:32:25;101375.25;;;20.31;53.04
70976;BME280;58635;51.198;6.010;2023-05-11T08:34:51;101370.53;;;20.33;52.93
70976;BME280;58635;51.198;6.010;2023-05-11T08:37:17;101374.84;;;20.39;52.87
70976;BME280;58635;51.198;6.010;2023-05-11T08:39:43;101370.44;;;20.45;52.91
70976;BME280;58635;51.198;6.010;2023-05-11T08:42:09;101375.78;;;20.50;52.58
70976;BME280;58635;51.198;6.010;2023-05-11T08:44:34;101375.28;;;20.53;52.66
70976;BME280;58635;51.198;6.010;2023-05-11T08:47:03;101372.97;;;20.57;52.61
70976;BME280;58635;51.198;6.010;2023-05-11T08:49:30;101370.66;;;20.60;52.32
70976;BME280;58635;51.198;6.010;2023-05-11T08:51:56;101369.69;;;20.71;52.29
70976;BME280;58635;51.198;6.010;2023-05-11T08:54:22;101369.56;;;20.83;51.89
70976;BME280;58635;51.198;6.010;2023-05-11T08:56:49;101374.50;;;21.01;51.75
70976;BME280;58635;51.198;6.010;2023-05-11T08:59:16;101371.75;;;21.18;51.18
70976;BME280;58635;51.198;6.010;2023-05-11T09:01:43;101374.25;;;21.30;51.00
70976;BME280;58635;51.198;6.010;2023-05-11T09:04:10;101368.81;;;21.42;50.73
70976;BME280;58635;51.198;6.010;2023-05-11T09:06:37;101376.06;;;21.56;50.38
70976;BME280;58635;51.198;6.010;2023-05-11T09:09:02;101380.38;;;21.73;49.98
70976;BME280;58635;51.198;6.010;2023-05-11T09:11:28;101374.94;;;21.84;49.67
70976;BME280;58635;51.198;6.010;2023-05-11T09:13:54;101378.38;;;21.90;49.45
70976;BME280;58635;51.198;6.010;2023-05-11T09:16:19;101380.28;;;21.95;49.28
70976;BME280;58635;51.198;6.010;2023-05-11T09:18:57;101381.59;;;21.97;48.91
70976;BME280;58635;51.198;6.010;2023-05-11T09:21:23;101381.34;;;21.99;48.90
70976;BME280;58635;51.198;6.010;2023-05-11T09:23:49;101380.34;;;22.05;49.05
70976;BME280;58635;51.198;6.010;2023-05-11T09:26:19;101387.03;;;22.17;48.51
70976;BME280;58635;51.198;6.010;2023-05-11T09:28:49;101386.03;;;22.29;48.29
70976;BME280;58635;51.198;6.010;2023-05-11T09:36:33;101378.19;;;22.49;47.91
70976;BME280;58635;51.198;6.010;2023-05-11T09:39:02;101379.00;;;22.55;47.67
70976;BME280;58635;51.198;6.010;2023-05-11T09:41:29;101371.63;;;22.57;47.76
70976;BME280;58635;51.198;6.010;2023-05-11T09:44:14;101375.88;;;22.63;47.44
70976;BME280;58635;51.198;6.010;2023-05-11T09:46:41;101374.03;;;22.68;47.17
70976;BME280;58635;51.198;6.010;2023-05-11T09:49:07;101379.59;;;22.77;47.35
70976;BME280;58635;51.198;6.010;2023-05-11T09:51:35;101376.50;;;22.85;47.22
70976;BME280;58635;51.198;6.010;2023-05-11T09:54:14;101380.97;;;22.95;47.33
70976;BME280;58635;51.198;6.010;2023-05-11T09:56:52;101382.06;;;23.14;46.94
70976;BME280;58635;51.198;6.010;2023-05-11T09:59:40;101379.16;;;23.31;46.24
70976;BME280;58635;51.198;6.010;2023-05-11T10:02:23;101387.09;;;23.51;46.08
70976;BME280;58635;51.198;6.010;2023-05-11T10:04:50;101377.88;;;23.64;45.71
70976;BME280;58635;51.198;6.010;2023-05-11T10:07:30;101388.69;;;23.78;45.60
70976;BME280;58635;51.198;6.010;2023-05-11T10:09:58;101386.03;;;23.83;44.63
70976;BME280;58635;51.198;6.010;2023-05-11T10:12:24;101379.97;;;23.82;44.99
70976;BME280;58635;51.198;6.010;2023-05-11T10:14:57;101385.25;;;23.82;44.92
70976;BME280;58635;51.198;6.010;2023-05-11T10:17:25;101386.03;;;23.78;44.73
70976;BME280;58635;51.198;6.010;2023-05-11T10:19:53;101383.16;;;23.64;44.81
70976;BME280;58635;51.198;6.010;2023-05-11T10:22:20;101375.47;;;23.42;45.11
70976;BME280;58635;51.198;6.010;2023-05-11T10:24:45;101384.47;;;23.21;45.39
70976;BME280;58635;51.198;6.010;2023-05-11T10:27:11;101374.41;;;23.02;46.12
70976;BME280;58635;51.198;6.010;2023-05-11T10:29:37;101380.19;;;22.89;46.22
70976;BME280;58635;51.198;6.010;2023-05-11T10:32:03;101378.56;;;22.78;46.06
70976;BME280;58635;51.198;6.010;2023-05-11T10:34:30;101377.47;;;22.69;46.57
70976;BME280;58635;51.198;6.010;2023-05-11T10:36:59;101373.78;;;22.65;46.56
70976;BME280;58635;51.198;6.010;2023-05-11T10:39:25;101368.50;;;22.65;46.51
70976;BME280;58635;51.198;6.010;2023-05-11T10:56:06;101368.38;;;23.22;45.79
70976;BME280;58635;51.198;6.010;2023-05-11T11:01:37;101378.91;;;23.53;45.36
70976;BME280;58635;51.198;6.010;2023-05-11T11:04:05;101373.09;;;23.66;44.77
70976;BME280;58635;51.198;6.010;2023-05-11T11:06:33;101378.13;;;23.78;44.65
70976;BME280;58635;51.198;6.010;2023-05-11T11:09:04;101377.31;;;23.87;43.81
70976;BME280;58635;51.198;6.010;2023-05-11T11:11:38;101378.09;;;23.93;43.65
70976;BME280;58635;51.198;6.010;2023-05-11T11:14:05;101373.34;;;23.95;43.52
70976;BME280;58635;51.198;6.010;2023-05-11T11:16:32;101376.75;;;23.90;43.43
70976;BME280;58635;51.198;6.010;2023-05-11T11:22:00;101367.28;;;23.84;43.77
70976;BME280;58635;51.198;6.010;2023-05-11T11:27:06;101368.88;;;23.75;44.04
70976;BME280;58635;51.198;6.010;2023-05-11T11:29:36;101373.41;;;23.70;43.98
70976;BME280;58635;51.198;6.010;2023-05-11T11:34:46;101368.09;;;23.49;43.79
70976;BME280;58635;51.198;6.010;2023-05-11T11:37:13;101371.81;;;23.33;44.30
70976;BME280;58635;51.198;6.010;2023-05-11T11:44:37;101367.28;;;23.28;44.23
70976;BME280;58635;51.198;6.010;2023-05-11T11:47:16;101364.41;;;23.35;43.87
70976;BME280;58635;51.198;6.010;2023-05-11T11:49:44;101359.66;;;23.47;43.49
70976;BME280;58635;51.198;6.010;2023-05-11T11:52:31;101370.44;;;23.56;43.59
70976;BME280;58635;51.198;6.010;2023-05-11T11:54:58;101362.78;;;23.54;43.54
70976;BME280;58635;51.198;6.010;2023-05-11T12:00:03;101366.22;;;23.55;43.35
70976;BME280;58635;51.198;6.010;2023-05-11T12:02:39;101364.66;;;23.54;43.75
70976;BME280;58635;51.198;6.010;2023-05-11T12:05:12;101360.41;;;23.53;43.74
70976;BME280;58635;51.198;6.010;2023-05-11T12:07:46;101358.84;;;23.52;43.43
70976;BME280;58635;51.198;6.010;2023-05-11T12:10:13;101354.63;;;23.51;43.88
70976;BME280;58635;51.198;6.010;2023-05-11T12:12:44;101356.47;;;23.50;43.61
70976;BME280;58635;51.198;6.010;2023-05-11T12:15:28;101356.75;;;23.49;43.53
70976;BME280;58635;51.198;6.010;2023-05-11T12:17:54;101355.94;;;23.48;43.71
70976;BME280;58635;51.198;6.010;2023-05-11T12:20:21;101351.19;;;23.50;43.69
70976;BME280;58635;51.198;6.010;2023-05-11T12:22:47;101353.56;;;23.57;43.42
70976;BME280;58635;51.198;6.010;2023-05-11T12:25:14;101346.19;;;23.64;43.54
70976;BME280;58635;51.198;6.010;2023-05-11T12:27:49;101343.53;;;23.74;43.22
70976;BME280;58635;51.198;6.010;2023-05-11T12:30:19;101343.78;;;23.83;43.21
70976;BME280;58635;51.198;6.010;2023-05-11T12:32:45;101330.78;;;23.91;42.95
70976;BME280;58635;51.198;6.010;2023-05-11T12:35:10;101335.00;;;23.98;42.26
70976;BME280;58635;51.198;6.010;2023-05-11T12:37:40;101335.78;;;24.08;43.11
70976;BME280;58635;51.198;6.010;2023-05-11T12:40:09;101350.03;;;24.17;42.44
70976;BME280;58635;51.198;6.010;2023-05-11T12:42:35;101341.25;;;24.22;42.16
70976;BME280;58635;51.198;6.010;2023-05-11T12:45:01;101340.19;;;24.28;41.57
70976;BME280;58635;51.198;6.010;2023-05-11T12:47:26;101335.66;;;24.39;42.06
70976;BME280;58635;51.198;6.010;2023-05-11T12:49:52;101339.03;;;24.55;41.48
70976;BME280;58635;51.198;6.010;2023-05-11T12:52:17;101338.13;;;24.74;41.10
70976;BME280;58635;51.198;6.010;2023-05-11T12:54:49;101340.38;;;24.91;40.45
70976;BME280;58635;51.198;6.010;2023-05-11T12:57:26;101346.38;;;25.07;40.64
70976;BME280;58635;51.198;6.010;2023-05-11T13:00:13;101331.41;;;25.26;40.19
70976;BME280;58635;51.198;6.010;2023-05-11T13:02:53;101334.41;;;25.44;39.90
70976;BME280;58635;51.198;6.010;2023-05-11T13:05:23;101329.00;;;25.59;39.93
70976;BME280;58635;51.198;6.010;2023-05-11T13:08:01;101331.00;;;25.72;39.16
70976;BME280;58635;51.198;6.010;2023-05-11T13:10:27;101316.56;;;25.83;38.88
70976;BME280;58635;51.198;6.010;2023-05-11T13:12:54;101317.47;;;25.98;38.99
70976;BME280;58635;51.198;6.010;2023-05-11T13:15:21;101319.63;;;26.14;38.67
70976;BME280;58635;51.198;6.010;2023-05-11T13:17:47;101318.66;;;26.29;38.34
70976;BME280;58635;51.198;6.010;2023-05-11T13:20:37;101314.16;;;26.48;38.55
70976;BME280;58635;51.198;6.010;2023-05-11T13:23:03;101312.38;;;26.63;37.89
70976;BME280;58635;51.198;6.010;2023-05-11T13:25:28;101312.09;;;26.64;37.85
70976;BME280;58635;51.198;6.010;2023-05-11T13:27:55;101311.22;;;26.69;37.62
70976;BME280;58635;51.198;6.010;2023-05-11T13:30:21;101310.16;;;26.70;37.20
70976;BME280;58635;51.198;6.010;2023-05-11T13:32:46;101307.78;;;26.68;36.89
70976;BME280;58635;51.198;6.010;2023-05-11T13:35:11;101304.75;;;26.75;37.10
70976;BME280;58635;51.198;6.010;2023-05-11T13:37:37;101306.97;;;26.87;36.87
70976;BME280;58635;51.198;6.010;2023-05-11T13:40:04;101308.66;;;26.96;36.46
70976;BME280;58635;51.198;6.010;2023-05-11T13:42:30;101303.44;;;26.91;36.50
70976;BME280;58635;51.198;6.010;2023-05-11T13:44:56;101303.25;;;26.88;36.61
70976;BME280;58635;51.198;6.010;2023-05-11T13:47:22;101300.81;;;26.91;36.67
70976;BME280;58635;51.198;6.010;2023-05-11T13:49:48;101303.16;;;26.93;36.69
70976;BME280;58635;51.198;6.010;2023-05-11T13:52:13;101298.94;;;26.92;36.30
70976;BME280;58635;51.198;6.010;2023-05-11T13:54:39;101298.22;;;26.86;36.14
70976;BME280;58635;51.198;6.010;2023-05-11T13:57:05;101298.31;;;26.81;36.15
70976;BME280;58635;51.198;6.010;2023-05-11T13:59:30;101294.06;;;26.80;36.28
70976;BME280;58635;51.198;6.010;2023-05-11T14:01:56;101287.97;;;26.79;36.50
70976;BME280;58635;51.198;6.010;2023-05-11T14:04:21;101288.75;;;26.80;36.10
70976;BME280;58635;51.198;6.010;2023-05-11T14:06:47;101291.41;;;26.80;35.96
70976;BME280;58635;51.198;6.010;2023-05-11T14:09:12;101290.44;;;26.76;36.01
70976;BME280;58635;51.198;6.010;2023-05-11T14:11:37;101289.13;;;26.73;36.10
70976;BME280;58635;51.198;6.010;2023-05-11T14:14:03;101281.44;;;26.72;35.89
70976;BME280;58635;51.198;6.010;2023-05-11T14:16:28;101281.75;;;26.70;36.02
70976;BME280;58635;51.198;6.010;2023-05-11T14:18:54;101280.81;;;26.61;35.93
70976;BME280;58635;51.198;6.010;2023-05-11T14:21:19;101288.44;;;26.49;35.80
70976;BME280;58635;51.198;6.010;2023-05-11T14:23:45;101286.75;;;26.34;36.00
70976;BME280;58635;51.198;6.010;2023-05-11T14:26:10;101287.19;;;26.22;36.17
70976;BME280;58635;51.198;6.010;2023-05-11T14:28:36;101278.00;;;26.15;36.12
70976;BME280;58635;51.198;6.010;2023-05-11T14:31:02;101276.78;;;26.07;36.36
70976;BME280;58635;51.198;6.010;2023-05-11T14:33:27;101283.50;;;26.00;36.35
70976;BME280;58635;51.198;6.010;2023-05-11T14:35:53;101283.56;;;25.94;36.60
70976;BME280;58635;51.198;6.010;2023-05-11T14:38:18;101275.66;;;25.89;36.51
70976;BME280;58635;51.198;6.010;2023-05-11T14:40:44;101271.81;;;25.82;36.62
70976;BME280;58635;51.198;6.010;2023-05-11T14:43:10;101273.22;;;25.74;37.10
70976;BME280;58635;51.198;6.010;2023-05-11T14:45:36;101273.00;;;25.65;37.29
70976;BME280;58635;51.198;6.010;2023-05-11T14:48:01;101277.09;;;25.58;37.13
70976;BME280;58635;51.198;6.010;2023-05-11T14:50:27;101271.91;;;25.48;37.40
70976;BME280;58635;51.198;6.010;2023-05-11T14:52:53;101272.00;;;25.38;37.72
70976;BME280;58635;51.198;6.010;2023-05-11T14:55:18;101275.81;;;25.26;37.94
70976;BME280;58635;51.198;6.010;2023-05-11T14:57:44;101274.03;;;25.17;38.11
70976;BME280;58635;51.198;6.010;2023-05-11T15:00:10;101277.81;;;25.11;38.72
70976;BME280;58635;51.198;6.010;2023-05-11T15:02:37;101271.25;;;25.03;38.96
70976;BME280;58635;51.198;6.010;2023-05-11T15:05:02;101269.16;;;24.95;39.34
70976;BME280;58635;51.198;6.010;2023-05-11T15:07:28;101262.34;;;24.89;39.52
70976;BME280;58635;51.198;6.010;2023-05-11T15:09:53;101270.03;;;24.85;40.24
70976;BME280;58635;51.198;6.010;2023-05-11T15:12:19;101270.09;;;24.80;40.33
70976;BME280;58635;51.198;6.010;2023-05-11T15:14:44;101274.88;;;24.73;40.61
70976;BME280;58635;51.198;6.010;2023-05-11T15:17:10;101275.72;;;24.68;40.49
70976;BME280;58635;51.198;6.010;2023-05-11T15:19:35;101280.78;;;24.65;41.16
70976;BME280;58635;51.198;6.010;2023-05-11T15:22:00;101278.41;;;24.63;41.13
70976;BME280;58635;51.198;6.010;2023-05-11T15:24:27;101279.75;;;24.61;41.02
70976;BME280;58635;51.198;6.010;2023-05-11T15:26:53;101284.78;;;24.57;41.03
70976;BME280;58635;51.198;6.010;2023-05-11T15:29:18;101286.13;;;24.55;41.04
70976;BME280;58635;51.198;6.010;2023-05-11T15:31:45;101280.63;;;24.51;40.59
70976;BME280;58635;51.198;6.010;2023-05-11T15:34:10;101292.50;;;24.48;40.80
70976;BME280;58635;51.198;6.010;2023-05-11T15:36:35;101287.78;;;24.45;40.65
70976;BME280;58635;51.198;6.010;2023-05-11T15:39:01;101291.75;;;24.43;40.95